Spalding, Nebraska
Current Conditions -  °F | °C
As of 9:55 AM on Sunday 23 Nov 2014 (Local Time) from KBVN Reporting Station
Light Rain Light Rain  
Wind Chill:   Ceiling: 2200
Heat Index:   Visibility: 10mi
Dew Point:   Wind: 20mph
Humidity: 89%   Direction: 330°NNW
Pressure: 29.6"   Gusts: 28mph
Location:  41.69°N, 98.36°W
Report Text: KBVN 231555Z AUTO 33017G24KT 10SM -RA OVC022 05/03 A2960 RMK AO2 P0001 T00470030
Loading
Personal Weather Stations






























Interactive Weather Map New forecast layout! Learn more

10-Day Weather Forecast

Advertisements
Track Severe Weather on mobile